Time;durP1;ratioP1;P1;durP2;ratioP2;P2;SDS_P1;SDS_P2;PMS_P1;PMS_P2;Temp;Humidity;BMP_temperature;BMP_pressure;BME280_temperature;BME280_humidity;BME280_pressure;Samples;Min_cycle;Max_cycle;Signal;HPM_P1;HPM_P2
2023/04/30 00:02:21;;;;;;;13.40;9.30;;;17.20;54.50;;;;;;5030184;28;20452;-84
2023/04/30 00:04:48;;;;;;;10.70;8.80;;;17.20;54.40;;;;;;5026611;28;21359;-82
2023/04/30 00:07:17;;;;;;;13.67;9.50;;;17.30;54.80;;;;;;5022409;28;20969;-85
2023/04/30 00:09:44;;;;;;;11.93;7.90;;;17.30;54.80;;;;;;5003287;28;20445;-85
2023/04/30 00:12:11;;;;;;;13.63;8.93;;;17.30;54.60;;;;;;5038016;28;20515;-84
2023/04/30 00:14:38;;;;;;;10.23;7.73;;;17.30;54.30;;;;;;5000833;28;20467;-85
2023/04/30 00:17:05;;;;;;;9.60;8.30;;;17.30;54.10;;;;;;5026177;28;20544;-86
2023/04/30 00:19:32;;;;;;;13.67;8.53;;;17.30;53.90;;;;;;5033878;28;20449;-84
2023/04/30 00:22:00;;;;;;;10.20;7.67;;;17.30;54.30;;;;;;5020354;28;20444;-84
2023/04/30 00:24:29;;;;;;;7.87;7.10;;;17.30;54.10;;;;;;5011390;28;20449;-83
2023/04/30 00:26:55;;;;;;;8.87;7.40;;;17.30;54.20;;;;;;5024621;28;20524;-84
2023/04/30 00:29:22;;;;;;;10.70;8.20;;;17.30;54.80;;;;;;5040459;28;20460;-85
2023/04/30 00:31:49;;;;;;;12.63;9.57;;;17.30;54.50;;;;;;5026535;28;22213;-85
2023/04/30 00:34:16;;;;;;;14.43;11.13;;;17.20;54.60;;;;;;5011426;28;20535;-85
2023/04/30 00:36:43;;;;;;;13.37;9.10;;;16.90;54.30;;;;;;5035210;28;20526;-85
2023/04/30 00:39:10;;;;;;;11.63;9.37;;;16.90;55.00;;;;;;5028184;28;20456;-85
2023/04/30 00:41:39;;;;;;;11.50;8.50;;;17.00;55.10;;;;;;5027233;28;20501;-85
2023/04/30 00:44:06;;;;;;;9.73;8.00;;;17.00;54.90;;;;;;5006058;28;20453;-84
2023/04/30 00:46:33;;;;;;;9.83;8.57;;;17.10;54.80;;;;;;5022473;28;20476;-85
2023/04/30 00:49:03;;;;;;;9.60;8.60;;;17.10;54.50;;;;;;5027007;28;20456;-84
2023/04/30 00:51:32;;;;;;;9.53;8.17;;;17.00;54.40;;;;;;5022949;28;20564;-84
2023/04/30 00:54:02;;;;;;;12.10;8.57;;;17.00;54.40;;;;;;5012879;28;20962;-85
2023/04/30 00:56:29;;;;;;;11.70;8.57;;;17.00;54.70;;;;;;5025716;28;21174;-86
2023/04/30 00:58:58;;;;;;;10.30;9.23;;;17.00;54.80;;;;;;5028731;28;20446;-83
2023/04/30 01:01:27;;;;;;;10.63;9.20;;;17.00;54.90;;;;;;5032700;28;20459;-85
2023/04/30 01:03:55;;;;;;;11.00;8.80;;;17.00;54.80;;;;;;5005112;28;20450;-83
2023/04/30 01:06:22;;;;;;;10.90;9.03;;;17.00;54.70;;;;;;5024800;28;20465;-86
2023/04/30 01:08:50;;;;;;;16.00;9.87;;;16.90;54.30;;;;;;5027991;28;21013;-84
2023/04/30 01:11:29;;;;;;;14.90;9.20;;;16.90;54.90;;;;;;5020907;28;20456;-84
2023/04/30 01:14:08;;;;;;;12.43;10.50;;;16.90;54.70;;;;;;5021833;28;20475;-85
2023/04/30 01:16:43;;;;;;;12.50;9.97;;;17.00;55.10;;;;;;5035261;28;20475;-83
2023/04/30 01:19:20;;;;;;;13.33;8.87;;;17.00;55.00;;;;;;5028630;28;20477;-85
2023/04/30 01:21:48;;;;;;;11.10;8.80;;;17.00;54.90;;;;;;5021900;28;20453;-84
2023/04/30 01:24:43;;;;;;;14.43;9.40;;;17.00;54.90;;;;;;5029117;28;20978;-84
2023/04/30 01:27:23;;;;;;;12.80;9.17;;;17.00;55.20;;;;;;5024880;28;20557;-84
2023/04/30 01:29:54;;;;;;;12.70;8.30;;;16.90;54.80;;;;;;5029194;28;20538;-84
2023/04/30 01:32:22;;;;;;;13.97;9.63;;;16.90;54.90;;;;;;5038343;28;20548;-83
2023/04/30 01:34:50;;;;;;;13.30;9.00;;;17.00;54.70;;;;;;5027441;28;20457;-86
2023/04/30 01:37:24;;;;;;;12.40;9.00;;;16.90;54.60;;;;;;5021587;28;20450;-85
2023/04/30 01:40:10;;;;;;;11.47;9.40;;;16.90;54.70;;;;;;5012055;28;20883;-84
2023/04/30 01:42:45;;;;;;;12.53;8.80;;;16.60;54.80;;;;;;5046554;28;20439;-84
2023/04/30 01:45:32;;;;;;;12.90;9.63;;;16.40;55.20;;;;;;5029420;28;21144;-85
2023/04/30 01:48:11;;;;;;;11.17;9.07;;;16.20;56.00;;;;;;5050406;28;20481;-85
2023/04/30 01:50:44;;;;;;;13.30;9.20;;;16.30;56.20;;;;;;5055156;28;20488;-85
2023/04/30 01:53:18;;;;;;;13.10;9.33;;;16.50;56.30;;;;;;5045169;28;20506;-85
2023/04/30 01:55:51;;;;;;;12.60;8.70;;;16.60;56.60;;;;;;5023343;28;20491;-83
2023/04/30 01:58:20;;;;;;;11.93;9.30;;;16.70;56.70;;;;;;5032872;28;20445;-83
2023/04/30 02:00:49;;;;;;;11.80;9.13;;;16.70;56.10;;;;;;5038802;28;20899;-84
2023/04/30 02:03:16;;;;;;;9.10;7.90;;;16.80;56.40;;;;;;5021204;28;20484;-85
2023/04/30 02:05:43;;;;;;;12.67;9.43;;;16.80;55.50;;;;;;5020747;28;20559;-87
2023/04/30 02:08:10;;;;;;;14.30;9.03;;;16.70;55.70;;;;;;5029525;28;20828;-84
2023/04/30 02:10:37;;;;;;;11.40;8.10;;;16.50;55.70;;;;;;5016588;28;21603;-83
2023/04/30 02:13:04;;;;;;;11.60;8.60;;;16.60;55.90;;;;;;5027731;28;20508;-85
2023/04/30 02:15:31;;;;;;;12.50;8.97;;;16.40;55.00;;;;;;5029367;28;20473;-84
2023/04/30 02:18:00;;;;;;;10.67;9.00;;;16.30;55.50;;;;;;5057501;28;20525;-86
2023/04/30 02:20:27;;;;;;;12.73;9.80;;;16.30;55.90;;;;;;5011367;28;20457;-85
2023/04/30 02:22:54;;;;;;;11.63;9.20;;;16.10;55.90;;;;;;5012291;28;21416;-84
2023/04/30 02:25:21;;;;;;;11.40;8.70;;;16.20;56.50;;;;;;5004050;28;20543;-85
2023/04/30 02:27:49;;;;;;;12.73;9.73;;;15.90;56.50;;;;;;5021692;28;20438;-83
2023/04/30 02:30:18;;;;;;;12.30;8.97;;;15.90;56.90;;;;;;5011696;28;20920;-84
2023/04/30 02:32:47;;;;;;;14.57;9.10;;;16.00;56.70;;;;;;5012152;28;20534;-84
2023/04/30 02:35:16;;;;;;;10.30;8.77;;;16.10;56.40;;;;;;5027989;28;20471;-85
2023/04/30 02:37:43;;;;;;;12.87;9.07;;;16.30;56.50;;;;;;4999707;28;20553;-83
2023/04/30 02:40:11;;;;;;;11.83;8.43;;;16.40;56.50;;;;;;5030373;28;20477;-84
2023/04/30 02:42:38;;;;;;;12.37;9.40;;;16.50;56.40;;;;;;5021955;28;20457;-84
2023/04/30 02:45:06;;;;;;;10.10;8.13;;;16.50;55.40;;;;;;5040534;28;20461;-85
2023/04/30 02:47:33;;;;;;;12.37;8.60;;;16.40;55.00;;;;;;5025620;28;20566;-85
2023/04/30 02:50:00;;;;;;;11.20;8.40;;;16.30;55.50;;;;;;5022325;28;20558;-85
2023/04/30 02:52:28;;;;;;;9.40;8.13;;;16.20;55.30;;;;;;5035462;28;20970;-84
2023/04/30 02:54:56;;;;;;;13.23;9.60;;;16.30;56.00;;;;;;5009961;28;22016;-86
2023/04/30 02:57:22;;;;;;;10.10;8.10;;;16.40;55.90;;;;;;5025093;28;20455;-85
2023/04/30 02:59:50;;;;;;;12.43;8.90;;;16.40;55.80;;;;;;5007575;28;20497;-85
2023/04/30 03:02:20;;;;;;;9.60;8.60;;;16.40;55.50;;;;;;5018493;28;20473;-83
2023/04/30 03:04:47;;;;;;;12.37;9.20;;;16.40;55.70;;;;;;5018659;28;20449;-82
2023/04/30 03:07:14;;;;;;;12.80;9.00;;;16.40;55.90;;;;;;5037457;28;21037;-85
2023/04/30 03:09:43;;;;;;;11.93;8.30;;;16.40;55.90;;;;;;5032998;28;20460;-83
2023/04/30 03:12:10;;;;;;;11.07;8.97;;;16.50;56.00;;;;;;5011430;28;20491;-85
2023/04/30 03:14:37;;;;;;;12.07;9.20;;;16.50;56.20;;;;;;5030406;28;20499;-86
2023/04/30 03:17:04;;;;;;;16.90;10.77;;;16.50;55.80;;;;;;5015615;28;20444;-85
2023/04/30 03:19:31;;;;;;;12.60;10.07;;;16.50;55.60;;;;;;5040611;28;20529;-84
2023/04/30 03:21:58;;;;;;;10.03;8.63;;;16.50;55.80;;;;;;5021379;28;20534;-85
2023/04/30 03:24:25;;;;;;;11.50;8.60;;;16.60;56.20;;;;;;5031967;28;20457;-85
2023/04/30 03:26:54;;;;;;;13.30;8.73;;;16.60;56.00;;;;;;5015238;28;20458;-86
2023/04/30 03:29:21;;;;;;;12.40;8.53;;;16.60;55.70;;;;;;5019821;28;20449;-86
2023/04/30 03:31:48;;;;;;;13.00;10.13;;;16.60;55.50;;;;;;5017577;28;20473;-82
2023/04/30 03:34:15;;;;;;;11.53;9.63;;;16.60;56.00;;;;;;5018778;28;20818;-85
2023/04/30 03:36:41;;;;;;;11.13;8.60;;;16.60;55.80;;;;;;5003413;28;20496;-84
2023/04/30 03:39:09;;;;;;;12.17;9.70;;;16.60;56.10;;;;;;5004795;28;20461;-85
2023/04/30 03:41:36;;;;;;;12.83;10.17;;;16.50;55.90;;;;;;5020976;28;20450;-83
2023/04/30 03:44:04;;;;;;;10.70;8.63;;;16.50;56.30;;;;;;5039104;28;20443;-85
2023/04/30 03:46:31;;;;;;;14.90;10.33;;;16.50;56.30;;;;;;5027916;28;20483;-87
2023/04/30 03:48:58;;;;;;;11.70;9.43;;;16.50;56.20;;;;;;5020980;28;22666;-85
2023/04/30 03:51:27;;;;;;;13.70;9.20;;;16.50;56.00;;;;;;5012668;28;20720;-84
2023/04/30 03:53:54;;;;;;;10.73;9.23;;;16.60;56.20;;;;;;5036263;28;20449;-86
2023/04/30 03:56:21;;;;;;;13.60;10.07;;;16.60;56.40;;;;;;5007908;28;20842;-84
2023/04/30 03:58:49;;;;;;;13.70;10.53;;;16.60;56.00;;;;;;5018289;28;20448;-85
2023/04/30 04:01:17;;;;;;;13.07;10.10;;;16.50;55.70;;;;;;5034773;28;20453;-87
2023/04/30 04:03:44;;;;;;;11.10;8.90;;;16.50;55.80;;;;;;5004327;28;20461;-85
2023/04/30 04:06:11;;;;;;;13.57;9.30;;;16.40;55.90;;;;;;5017450;28;21279;-85
2023/04/30 04:08:38;;;;;;;13.90;9.33;;;16.40;55.60;;;;;;5020076;28;20452;-86
2023/04/30 04:11:05;;;;;;;11.13;9.10;;;16.30;55.90;;;;;;5040044;28;20881;-85
2023/04/30 04:13:32;;;;;;;11.27;9.50;;;16.20;56.40;;;;;;5007847;28;20528;-85
2023/04/30 04:15:59;;;;;;;10.97;9.50;;;16.20;56.80;;;;;;5025622;28;20480;-85
2023/04/30 04:18:28;;;;;;;10.83;9.07;;;16.30;56.60;;;;;;5016857;28;20481;-83
2023/04/30 04:20:56;;;;;;;12.57;10.53;;;16.30;56.40;;;;;;5009515;28;20473;-87
2023/04/30 04:23:23;;;;;;;15.70;9.43;;;16.30;56.60;;;;;;5035677;28;20541;-86
2023/04/30 04:25:51;;;;;;;11.17;9.70;;;16.30;56.40;;;;;;5040396;28;20471;-85
2023/04/30 04:28:18;;;;;;;13.10;10.43;;;16.30;55.90;;;;;;5058289;28;20555;-83
2023/04/30 04:30:45;;;;;;;13.70;10.13;;;16.30;56.10;;;;;;5014655;28;20476;-85
2023/04/30 04:33:12;;;;;;;10.70;8.90;;;16.30;56.20;;;;;;5027051;28;20552;-83
2023/04/30 04:35:41;;;;;;;14.30;10.77;;;16.30;56.40;;;;;;5033265;28;20562;-86
2023/04/30 04:38:08;;;;;;;11.27;9.30;;;16.30;56.30;;;;;;5040420;28;20444;-83
2023/04/30 04:40:36;;;;;;;16.13;10.77;;;16.30;56.20;;;;;;5024035;28;20448;-85
2023/04/30 04:43:03;;;;;;;14.33;10.07;;;16.30;56.60;;;;;;5020876;28;20540;-84
2023/04/30 04:45:30;;;;;;;15.50;9.93;;;16.40;56.40;;;;;;5042278;28;20975;-86
2023/04/30 04:47:57;;;;;;;14.40;10.90;;;16.40;56.40;;;;;;5024875;28;20449;-83
2023/04/30 04:50:24;;;;;;;15.70;9.80;;;16.40;56.60;;;;;;5038456;28;20440;-83
2023/04/30 04:52:53;;;;;;;13.43;10.47;;;16.50;56.80;;;;;;5031722;28;20468;-83
2023/04/30 04:55:20;;;;;;;13.43;10.40;;;16.50;56.50;;;;;;5038165;28;20485;-85
2023/04/30 04:57:47;;;;;;;15.50;10.90;;;16.50;56.70;;;;;;5017442;28;20448;-84
2023/04/30 05:00:15;;;;;;;14.60;11.67;;;16.50;56.80;;;;;;5031896;28;20835;-85
2023/04/30 05:02:42;;;;;;;16.57;12.07;;;16.50;56.60;;;;;;5028074;28;20449;-84
2023/04/30 05:05:10;;;;;;;13.87;10.93;;;16.50;56.60;;;;;;5021786;28;20468;-86
2023/04/30 05:07:37;;;;;;;20.20;12.57;;;16.50;57.00;;;;;;5013020;28;20476;-84
2023/04/30 05:10:06;;;;;;;15.07;12.57;;;16.60;57.00;;;;;;5011459;28;20784;-85
2023/04/30 05:12:33;;;;;;;16.07;11.10;;;16.60;57.00;;;;;;5011903;28;20469;-84
2023/04/30 05:15:00;;;;;;;16.80;12.57;;;16.60;57.00;;;;;;5007160;28;20516;-85
2023/04/30 05:17:27;;;;;;;15.63;11.60;;;16.60;56.70;;;;;;4992785;28;20458;-84
2023/04/30 05:19:55;;;;;;;15.53;10.77;;;16.70;56.50;;;;;;5017958;28;20453;-85
2023/04/30 05:22:22;;;;;;;12.07;10.13;;;16.70;56.50;;;;;;5030459;28;20453;-83
2023/04/30 05:24:51;;;;;;;14.37;11.00;;;16.70;56.10;;;;;;5018943;28;20539;-84
2023/04/30 05:27:20;;;;;;;16.03;10.97;;;16.60;56.70;;;;;;5030829;28;20448;-85
2023/04/30 05:29:48;;;;;;;15.30;10.37;;;16.60;56.40;;;;;;5010796;28;20484;-86
2023/04/30 05:32:15;;;;;;;12.33;10.00;;;16.50;56.50;;;;;;5033512;28;20951;-86
2023/04/30 05:34:42;;;;;;;13.70;11.13;;;16.50;56.70;;;;;;5023108;28;20458;-86
2023/04/30 05:37:11;;;;;;;16.37;10.50;;;16.60;57.30;;;;;;5024210;28;20461;-85
2023/04/30 05:39:38;;;;;;;12.97;10.13;;;16.60;56.90;;;;;;5013064;28;20448;-85
2023/04/30 05:42:06;;;;;;;13.97;9.70;;;16.70;56.30;;;;;;5031074;28;20452;-85
2023/04/30 05:44:34;;;;;;;14.07;10.17;;;16.60;56.10;;;;;;5015123;28;20451;-84
2023/04/30 05:47:01;;;;;;;12.57;10.03;;;16.50;56.50;;;;;;5004275;28;20463;-85
2023/04/30 05:49:29;;;;;;;13.80;10.80;;;16.50;55.70;;;;;;5010567;28;20494;-82
2023/04/30 05:51:56;;;;;;;13.40;10.47;;;16.40;55.60;;;;;;5043485;28;20448;-85
2023/04/30 05:54:23;;;;;;;14.30;12.07;;;16.30;54.30;;;;;;5026289;28;20464;-84
2023/04/30 05:56:50;;;;;;;13.90;10.73;;;16.00;54.30;;;;;;5026070;28;20470;-85
2023/04/30 05:59:17;;;;;;;14.83;10.70;;;16.00;54.80;;;;;;5031057;28;20547;-83
2023/04/30 06:01:46;;;;;;;11.87;9.87;;;15.90;54.60;;;;;;5003347;28;21116;-84
2023/04/30 06:04:13;;;;;;;10.47;9.37;;;15.80;54.00;;;;;;5037170;28;20972;-84
2023/04/30 06:06:40;;;;;;;14.77;10.87;;;15.80;54.50;;;;;;5042732;28;20903;-84
2023/04/30 06:09:07;;;;;;;15.77;12.33;;;15.90;55.00;;;;;;5035279;28;20475;-85
2023/04/30 06:11:36;;;;;;;15.00;10.23;;;16.10;54.50;;;;;;5023673;28;20445;-83
2023/04/30 06:14:04;;;;;;;17.30;10.43;;;16.10;54.20;;;;;;5003539;28;21041;-84
2023/04/30 06:16:31;;;;;;;12.97;9.60;;;16.30;54.10;;;;;;5006800;28;21076;-83
2023/04/30 06:18:59;;;;;;;14.57;10.20;;;16.40;53.90;;;;;;5018178;28;20442;-84
2023/04/30 06:21:26;;;;;;;13.97;9.77;;;16.30;53.50;;;;;;5001845;28;20453;-84
2023/04/30 06:23:53;;;;;;;14.30;10.23;;;16.20;52.90;;;;;;5009512;28;20951;-85
2023/04/30 06:26:20;;;;;;;10.43;8.87;;;16.10;53.20;;;;;;5011531;28;20472;-84
2023/04/30 06:28:47;;;;;;;13.20;9.03;;;15.90;53.60;;;;;;5010681;28;20532;-85
2023/04/30 06:31:14;;;;;;;9.40;8.40;;;16.00;53.80;;;;;;5051220;28;20445;-85
2023/04/30 06:33:41;;;;;;;11.03;8.67;;;16.10;53.90;;;;;;5038067;28;20477;-84
2023/04/30 06:36:09;;;;;;;10.70;8.60;;;16.00;53.30;;;;;;5032740;28;20471;-85
2023/04/30 06:38:36;;;;;;;11.57;8.37;;;15.90;53.50;;;;;;5033592;28;20452;-85
2023/04/30 06:41:03;;;;;;;9.33;8.23;;;16.00;53.40;;;;;;5012722;28;20456;-85
2023/04/30 06:43:30;;;;;;;13.90;8.60;;;16.10;53.90;;;;;;5021924;28;20452;-85
2023/04/30 06:45:57;;;;;;;12.30;9.50;;;16.20;53.50;;;;;;5011001;28;20474;-85
2023/04/30 06:48:24;;;;;;;14.00;8.70;;;16.30;53.40;;;;;;5018902;28;21089;-85
2023/04/30 06:50:51;;;;;;;16.43;8.60;;;16.20;52.60;;;;;;5032955;28;20460;-85
2023/04/30 06:53:19;;;;;;;11.87;8.33;;;16.30;53.00;;;;;;5021721;28;21028;-84
2023/04/30 06:55:46;;;;;;;11.07;8.77;;;16.50;52.40;;;;;;5014639;28;20483;-84
2023/04/30 06:58:13;;;;;;;13.03;9.17;;;16.70;52.10;;;;;;5024921;28;20445;-85
2023/04/30 07:00:41;;;;;;;11.80;8.80;;;16.80;52.50;;;;;;5007977;28;20493;-85
2023/04/30 07:03:08;;;;;;;11.93;8.57;;;16.70;51.60;;;;;;5020047;28;21060;-84
2023/04/30 07:05:35;;;;;;;11.40;7.80;;;16.90;52.50;;;;;;5017327;28;20465;-84
2023/04/30 07:08:03;;;;;;;9.30;7.80;;;16.90;52.10;;;;;;5022731;28;20543;-84
2023/04/30 07:10:32;;;;;;;9.40;7.60;;;16.70;51.40;;;;;;5022131;28;20457;-85
2023/04/30 07:12:59;;;;;;;9.60;7.40;;;16.90;51.30;;;;;;5016504;28;20477;-85
2023/04/30 07:15:26;;;;;;;9.40;7.90;;;17.00;51.30;;;;;;5038038;28;20519;-85
2023/04/30 07:17:54;;;;;;;9.00;7.43;;;17.20;49.80;;;;;;5025056;28;20442;-86
2023/04/30 07:20:20;;;;;;;10.07;7.50;;;17.40;51.20;;;;;;5010143;28;20480;-83
2023/04/30 07:22:47;;;;;;;12.67;8.00;;;17.70;50.20;;;;;;5015999;28;20448;-85
2023/04/30 07:25:15;;;;;;;8.20;7.20;;;17.80;50.10;;;;;;5031840;28;20461;-85
2023/04/30 07:27:43;;;;;;;11.97;7.50;;;17.90;48.40;;;;;;5026857;28;20449;-85
2023/04/30 07:30:11;;;;;;;8.30;6.77;;;17.60;49.30;;;;;;5004186;28;20451;-84
2023/04/30 07:32:39;;;;;;;7.90;6.67;;;17.40;49.40;;;;;;5008336;28;21230;-85
2023/04/30 07:35:07;;;;;;;10.87;6.60;;;17.40;49.20;;;;;;5013452;28;20460;-84
2023/04/30 07:37:34;;;;;;;8.70;6.60;;;17.40;49.50;;;;;;5006375;28;20458;-85
2023/04/30 07:40:01;;;;;;;13.17;6.70;;;17.50;49.80;;;;;;5006259;28;20459;-84
2023/04/30 07:42:28;;;;;;;6.67;5.97;;;17.40;48.90;;;;;;5000724;28;20452;-84
2023/04/30 07:44:57;;;;;;;9.13;6.27;;;17.60;48.60;;;;;;5018110;28;21205;-84
2023/04/30 07:47:25;;;;;;;10.93;6.30;;;17.80;48.40;;;;;;5020614;28;20457;-83
2023/04/30 07:49:52;;;;;;;10.10;7.00;;;17.70;48.40;;;;;;5030599;28;20440;-84
2023/04/30 07:52:19;;;;;;;8.70;6.30;;;17.60;48.20;;;;;;5035446;28;20444;-84
2023/04/30 07:54:46;;;;;;;8.00;5.77;;;17.60;47.80;;;;;;5013306;28;20468;-85
2023/04/30 07:57:13;;;;;;;12.43;6.30;;;17.40;47.90;;;;;;5049355;28;20453;-85
2023/04/30 07:59:40;;;;;;;8.23;5.60;;;17.60;48.40;;;;;;5003710;28;20445;-85
2023/04/30 08:02:09;;;;;;;7.73;5.60;;;17.90;48.40;;;;;;5031875;28;20449;-84
2023/04/30 08:04:36;;;;;;;9.30;5.80;;;18.00;47.20;;;;;;5016308;28;20458;-84
2023/04/30 08:07:04;;;;;;;5.90;5.30;;;17.80;46.40;;;;;;5031490;28;20547;-85
2023/04/30 08:09:31;;;;;;;5.80;5.00;;;17.90;47.60;;;;;;5033131;28;20938;-84
2023/04/30 08:11:58;;;;;;;5.70;4.77;;;18.10;46.20;;;;;;5017026;28;20967;-84
2023/04/30 08:14:25;;;;;;;5.43;4.43;;;17.90;46.30;;;;;;5007852;28;20500;-84
2023/04/30 08:16:52;;;;;;;5.83;4.70;;;18.10;46.70;;;;;;5025307;28;21224;-83
2023/04/30 08:19:21;;;;;;;5.40;4.27;;;18.10;45.80;;;;;;5024117;28;20485;-85
2023/04/30 08:21:48;;;;;;;5.00;4.47;;;18.30;45.50;;;;;;5031010;28;20454;-83
2023/04/30 08:24:15;;;;;;;6.50;4.43;;;18.30;45.20;;;;;;5041425;28;20446;-84
2023/04/30 08:26:42;;;;;;;4.47;4.03;;;18.40;44.80;;;;;;5031383;28;20470;-84
2023/04/30 08:29:09;;;;;;;5.30;4.23;;;18.50;44.20;;;;;;5038447;28;20465;-84
2023/04/30 08:31:36;;;;;;;5.37;4.40;;;18.80;43.60;;;;;;5016193;28;20472;-84
2023/04/30 08:34:03;;;;;;;5.20;3.90;;;18.90;42.40;;;;;;5007344;28;20578;-83
2023/04/30 08:36:32;;;;;;;4.03;3.57;;;18.90;42.90;;;;;;5018800;28;21140;-85
2023/04/30 08:39:00;;;;;;;4.90;3.67;;;19.00;42.60;;;;;;5020534;28;20519;-85
2023/04/30 08:41:32;;;;;;;7.97;4.50;;;19.00;43.10;;;;;;5003143;28;20449;-86
2023/04/30 08:44:02;;;;;;;3.43;3.10;;;19.00;42.20;;;;;;5020957;28;20449;-84
2023/04/30 08:46:32;;;;;;;4.57;3.30;;;18.90;43.10;;;;;;5008940;28;20496;-84
2023/04/30 08:48:59;;;;;;;4.60;4.20;;;19.20;43.40;;;;;;5003716;28;20932;-84
2023/04/30 08:51:27;;;;;;;3.87;3.47;;;19.60;44.20;;;;;;5001366;28;20576;-85
2023/04/30 08:53:57;;;;;;;3.93;3.63;;;19.80;43.10;;;;;;5009861;28;20495;-84
2023/04/30 08:56:24;;;;;;;7.60;3.80;;;19.90;42.10;;;;;;5035582;28;20563;-85
2023/04/30 08:58:51;;;;;;;6.00;3.60;;;19.80;41.40;;;;;;5020068;28;20443;-85
2023/04/30 09:01:19;;;;;;;8.20;3.80;;;19.70;41.60;;;;;;5028860;28;20544;-84
2023/04/30 09:03:47;;;;;;;6.20;5.10;;;19.90;43.10;;;;;;5039197;28;20940;-85
2023/04/30 09:06:16;;;;;;;5.60;3.60;;;20.00;42.00;;;;;;5018916;28;20473;-84
2023/04/30 09:08:45;;;;;;;4.90;4.33;;;20.30;41.10;;;;;;5035208;28;20962;-84
2023/04/30 09:11:27;;;;;;;3.90;3.50;;;20.20;42.40;;;;;;5036920;28;20444;-85
2023/04/30 09:13:56;;;;;;;4.93;3.60;;;20.30;40.00;;;;;;5018582;28;20468;-84
2023/04/30 09:16:24;;;;;;;4.87;3.37;;;20.40;40.70;;;;;;5023819;28;20483;-85
2023/04/30 09:18:52;;;;;;;4.07;3.27;;;20.40;41.20;;;;;;5028248;28;20461;-84
2023/04/30 09:21:31;;;;;;;4.27;2.40;;;20.30;39.60;;;;;;5052212;28;20452;-85
2023/04/30 09:24:00;;;;;;;2.90;2.70;;;20.40;40.20;;;;;;5026408;28;20467;-84
2023/04/30 09:26:32;;;;;;;5.17;3.10;;;20.20;39.80;;;;;;5023826;28;20466;-85
2023/04/30 09:29:06;;;;;;;2.73;2.47;;;20.20;37.50;;;;;;5017509;28;20457;-84
2023/04/30 09:31:34;;;;;;;2.80;2.60;;;20.00;38.70;;;;;;5024168;28;20462;-83
2023/04/30 09:34:00;;;;;;;4.10;2.60;;;19.70;39.00;;;;;;5036785;28;20476;-83
2023/04/30 09:36:27;;;;;;;2.80;2.60;;;19.80;38.90;;;;;;5022819;28;20479;-85
2023/04/30 09:38:55;;;;;;;2.07;1.97;;;19.90;39.20;;;;;;5021737;28;20468;-84
2023/04/30 09:41:23;;;;;;;2.20;2.00;;;20.00;38.30;;;;;;5011194;28;20449;-84
2023/04/30 09:43:52;;;;;;;3.17;2.27;;;20.30;38.80;;;;;;5035279;28;20449;-84
2023/04/30 09:46:20;;;;;;;2.40;2.20;;;20.50;37.80;;;;;;5042666;28;20466;-84
2023/04/30 09:48:55;;;;;;;2.70;2.07;;;20.30;37.80;;;;;;5019924;28;20499;-84
2023/04/30 09:51:22;;;;;;;3.77;2.90;;;20.50;38.20;;;;;;5040145;28;20452;-85
2023/04/30 09:53:51;;;;;;;2.70;2.50;;;20.60;37.90;;;;;;5018568;28;20477;-85
2023/04/30 09:56:21;;;;;;;6.90;4.67;;;20.90;37.90;;;;;;5011664;28;20523;-83
2023/04/30 09:58:53;;;;;;;3.37;2.90;;;20.90;36.80;;;;;;5033331;28;20444;-84
2023/04/30 10:01:21;;;;;;;2.53;2.33;;;21.20;36.30;;;;;;5036331;28;20974;-84
2023/04/30 10:03:49;;;;;;;2.43;2.23;;;21.20;36.60;;;;;;5035023;28;20827;-83
2023/04/30 10:06:17;;;;;;;2.63;2.43;;;21.40;36.30;;;;;;5011248;28;20814;-84
2023/04/30 10:08:47;;;;;;;2.47;2.27;;;21.40;35.90;;;;;;5016996;28;20455;-84
2023/04/30 10:11:18;;;;;;;3.30;2.80;;;21.40;34.80;;;;;;5021725;28;20468;-83
2023/04/30 10:13:54;;;;;;;2.60;2.23;;;21.30;34.60;;;;;;5028996;28;21374;-84
2023/04/30 10:16:30;;;;;;;2.10;1.90;;;21.00;35.00;;;;;;5027781;28;20479;-84
2023/04/30 10:19:02;;;;;;;2.37;2.17;;;21.20;33.90;;;;;;5042538;28;20807;-84
2023/04/30 10:21:31;;;;;;;12.20;3.07;;;21.40;35.30;;;;;;5017498;28;20494;-84
2023/04/30 10:23:58;;;;;;;2.50;2.30;;;21.60;34.80;;;;;;5035816;28;20442;-82
2023/04/30 10:26:25;;;;;;;2.40;2.20;;;22.00;37.10;;;;;;5019984;28;20458;-84
2023/04/30 10:28:57;;;;;;;2.47;2.27;;;22.20;34.80;;;;;;5006131;28;20968;-84
2023/04/30 10:31:25;;;;;;;2.70;2.50;;;22.30;36.10;;;;;;5021994;28;20500;-85
2023/04/30 10:34:03;;;;;;;2.60;2.23;;;22.30;35.00;;;;;;5037296;28;20967;-84
2023/04/30 10:36:39;;;;;;;2.63;2.43;;;22.20;33.30;;;;;;5035968;28;20464;-84
2023/04/30 10:39:07;;;;;;;2.27;1.80;;;22.00;35.00;;;;;;5024932;28;20452;-84
2023/04/30 10:41:34;;;;;;;2.67;2.47;;;21.80;35.90;;;;;;5023659;28;20445;-85
2023/04/30 10:44:04;;;;;;;3.60;2.40;;;21.90;35.80;;;;;;5042589;28;20934;-84
2023/04/30 10:46:34;;;;;;;9.50;3.43;;;21.60;35.90;;;;;;5012077;28;21452;-84
2023/04/30 10:49:01;;;;;;;3.17;2.33;;;21.70;36.20;;;;;;5036457;28;20441;-84
2023/04/30 10:51:50;;;;;;;2.43;2.23;;;22.20;34.90;;;;;;5031335;28;20456;-83
2023/04/30 10:54:25;;;;;;;2.27;2.00;;;22.60;34.30;;;;;;5051699;28;20481;-84
2023/04/30 10:56:55;;;;;;;2.30;1.93;;;22.90;33.30;;;;;;5036496;28;20461;-83
2023/04/30 10:59:23;;;;;;;3.50;2.40;;;22.90;32.90;;;;;;5054190;28;20826;-83
2023/04/30 11:01:58;;;;;;;2.53;2.10;;;23.00;32.00;;;;;;5024115;28;20888;-83
2023/04/30 11:04:25;;;;;;;1.73;1.63;;;23.20;34.00;;;;;;5019473;28;20459;-86
2023/04/30 11:07:07;;;;;;;2.00;1.80;;;23.40;32.00;;;;;;5019200;28;20474;-84
2023/04/30 11:09:40;;;;;;;2.53;1.63;;;23.70;30.60;;;;;;5013730;28;20441;-83
2023/04/30 11:12:12;;;;;;;2.60;2.40;;;24.00;32.20;;;;;;5042834;28;20528;-85
2023/04/30 11:14:45;;;;;;;1.90;1.80;;;24.20;31.20;;;;;;5028088;28;20844;-84
2023/04/30 11:17:21;;;;;;;2.33;1.90;;;24.30;30.30;;;;;;5037050;28;20448;-83
2023/04/30 11:19:49;;;;;;;1.90;1.80;;;24.10;31.00;;;;;;5026257;28;20436;-83
2023/04/30 11:22:28;;;;;;;1.60;1.40;;;23.70;30.60;;;;;;5036731;28;20481;-85
2023/04/30 11:25:04;;;;;;;1.87;1.30;;;23.20;31.20;;;;;;5022056;28;20445;-87
2023/04/30 11:27:33;;;;;;;1.50;1.40;;;23.60;32.60;;;;;;5019509;28;20464;-84
2023/04/30 11:30:03;;;;;;;3.30;1.93;;;23.80;31.10;;;;;;5042902;28;20840;-83
2023/04/30 11:32:33;;;;;;;4.53;1.70;;;23.80;32.00;;;;;;5021232;28;20528;-86
2023/04/30 11:35:02;;;;;;;1.60;1.50;;;23.60;30.50;;;;;;5020189;28;20487;-85
2023/04/30 11:37:32;;;;;;;1.93;1.40;;;23.40;30.40;;;;;;5024079;28;20446;-85
2023/04/30 11:40:02;;;;;;;1.43;1.33;;;23.50;31.00;;;;;;5015137;28;20498;-84
2023/04/30 11:42:30;;;;;;;1.83;1.73;;;23.70;29.90;;;;;;5027520;28;20461;-83
2023/04/30 11:45:05;;;;;;;1.40;1.30;;;24.30;30.70;;;;;;5032607;28;20457;-86
2023/04/30 11:47:40;;;;;;;2.07;1.47;;;25.10;30.10;;;;;;5027079;28;20460;-85
2023/04/30 11:50:08;;;;;;;2.17;1.40;;;25.30;29.90;;;;;;5027826;28;20452;-85
2023/04/30 11:52:35;;;;;;;1.50;1.40;;;25.10;29.40;;;;;;5012154;28;20958;-86
2023/04/30 11:55:07;;;;;;;1.77;1.53;;;25.10;28.80;;;;;;5016636;28;20500;-83
2023/04/30 11:57:41;;;;;;;1.43;1.30;;;25.00;29.80;;;;;;5012537;28;20465;-83
2023/04/30 12:00:11;;;;;;;1.40;1.30;;;25.00;29.50;;;;;;5020009;28;20452;-84
2023/04/30 12:02:39;;;;;;;2.03;1.83;;;24.70;29.40;;;;;;5018958;28;20449;-83
2023/04/30 12:05:12;;;;;;;1.47;1.37;;;24.60;29.80;;;;;;5004150;28;20493;-83
2023/04/30 12:07:39;;;;;;;1.33;1.23;;;24.40;29.00;;;;;;5006628;28;20445;-83
2023/04/30 12:10:08;;;;;;;1.23;1.13;;;24.50;28.90;;;;;;5012625;28;20545;-84
2023/04/30 12:12:37;;;;;;;1.83;1.20;;;24.80;30.00;;;;;;5015929;28;20455;-84
2023/04/30 12:15:13;;;;;;;1.60;1.50;;;24.90;28.80;;;;;;5014829;28;20475;-84
2023/04/30 12:17:40;;;;;;;1.73;1.50;;;24.80;28.10;;;;;;5018228;28;20511;-85
2023/04/30 12:20:08;;;;;;;1.77;1.67;;;24.60;29.60;;;;;;5014480;28;20453;-84
2023/04/30 12:22:36;;;;;;;1.47;1.33;;;24.80;28.40;;;;;;5021241;28;20458;-84
2023/04/30 12:25:08;;;;;;;1.67;1.57;;;25.10;28.40;;;;;;5034464;28;20468;-82
2023/04/30 12:27:36;;;;;;;1.67;1.37;;;24.90;29.20;;;;;;5047848;28;20437;-84
2023/04/30 12:30:07;;;;;;;1.80;1.40;;;25.10;29.50;;;;;;5026254;28;20484;-82
2023/04/30 12:32:40;;;;;;;2.57;1.40;;;25.40;28.70;;;;;;5021742;28;20954;-84
2023/04/30 12:35:08;;;;;;;1.30;1.20;;;24.80;28.40;;;;;;5012377;28;20480;-85
2023/04/30 12:37:35;;;;;;;2.07;1.20;;;24.80;28.80;;;;;;5040655;28;20444;-82
2023/04/30 12:40:03;;;;;;;1.90;1.30;;;24.30;28.60;;;;;;5008771;28;20441;-83
2023/04/30 12:42:34;;;;;;;1.17;1.07;;;24.30;28.30;;;;;;5028579;28;20456;-85
2023/04/30 12:45:02;;;;;;;1.67;1.50;;;24.40;27.80;;;;;;5021379;28;20469;-84
2023/04/30 12:47:30;;;;;;;1.30;1.20;;;24.90;28.60;;;;;;5013620;28;20456;-85
2023/04/30 12:49:58;;;;;;;1.33;1.20;;;25.30;29.00;;;;;;5027124;28;20453;-85